Time;durP1;ratioP1;P1;durP2;ratioP2;P2;SDS_P1;SDS_P2;PMS_P1;PMS_P2;Temp;Humidity;BMP_temperature;BMP_pressure;BME280_temperature;BME280_humidity;BME280_pressure;Samples;Min_cycle;Max_cycle;Signal;HPM_P1;HPM_P2
2021/05/28 00:01:15;;;;;;;15.68;14.25;;;18.50;99.90;;;;;;5078227;28;20032;-86
2021/05/28 00:03:41;;;;;;;16.55;14.85;;;18.50;99.90;;;;;;5094609;28;20385;-86
2021/05/28 00:06:07;;;;;;;15.80;14.20;;;18.50;99.90;;;;;;5094326;28;20044;-86
2021/05/28 00:08:33;;;;;;;17.52;15.75;;;18.50;99.90;;;;;;5077647;28;20030;-86
2021/05/28 00:10:59;;;;;;;16.17;14.48;;;18.50;99.90;;;;;;5077604;28;20043;-86
2021/05/28 00:13:25;;;;;;;16.50;14.80;;;18.50;99.90;;;;;;5096864;28;20016;-86
2021/05/28 00:15:50;;;;;;;17.13;15.13;;;18.50;99.90;;;;;;5094356;28;20039;-86
2021/05/28 00:18:16;;;;;;;17.15;15.35;;;18.50;99.90;;;;;;5077374;28;20054;-86
2021/05/28 00:20:42;;;;;;;18.08;15.50;;;18.50;99.90;;;;;;5077282;28;20114;-86
2021/05/28 00:23:08;;;;;;;16.70;15.05;;;18.50;99.90;;;;;;5094271;28;20020;-86
2021/05/28 00:25:34;;;;;;;17.50;15.10;;;18.50;99.90;;;;;;5077515;28;20039;-86
2021/05/28 00:28:00;;;;;;;16.88;14.95;;;18.40;99.90;;;;;;5077763;28;20025;-86
2021/05/28 00:30:25;;;;;;;16.67;15.07;;;18.40;99.90;;;;;;5077416;28;20481;-87
2021/05/28 00:32:51;;;;;;;16.00;14.50;;;18.40;99.90;;;;;;5096102;28;20032;-86
2021/05/28 00:35:17;;;;;;;17.25;15.48;;;18.30;99.90;;;;;;5096748;28;20032;-86
2021/05/28 00:37:44;;;;;;;16.15;14.43;;;18.30;99.90;;;;;;5077366;28;20088;-86
2021/05/28 00:40:10;;;;;;;15.75;14.18;;;18.30;99.90;;;;;;5094733;28;20544;-86
2021/05/28 00:42:36;;;;;;;15.68;14.15;;;18.20;99.90;;;;;;5081524;28;20032;-86
2021/05/28 00:45:03;;;;;;;16.73;14.98;;;18.20;99.90;;;;;;5079318;28;20382;-86
2021/05/28 00:47:29;;;;;;;15.30;13.80;;;18.10;99.90;;;;;;5094085;28;20032;-86
2021/05/28 00:49:55;;;;;;;15.95;14.45;;;18.10;99.90;;;;;;5095600;28;20032;-86
2021/05/28 00:52:21;;;;;;;15.73;14.07;;;18.00;99.90;;;;;;5080166;28;20046;-87
2021/05/28 00:54:46;;;;;;;16.25;14.75;;;18.00;99.90;;;;;;5084814;28;20032;-87
2021/05/28 00:57:13;;;;;;;14.90;13.40;;;18.00;99.90;;;;;;5079018;28;20507;-87
2021/05/28 00:59:39;;;;;;;16.10;14.50;;;17.90;99.90;;;;;;5101893;28;20024;-87
2021/05/28 01:02:05;;;;;;;16.05;14.35;;;17.90;99.90;;;;;;5093101;28;20028;-87
2021/05/28 01:04:31;;;;;;;17.17;15.18;;;17.80;99.90;;;;;;5113151;28;20016;-87
2021/05/28 01:06:57;;;;;;;17.02;15.32;;;17.80;99.90;;;;;;5112849;28;20044;-87
2021/05/28 01:09:23;;;;;;;16.08;14.40;;;17.80;99.90;;;;;;5101653;28;20039;-87
2021/05/28 01:11:48;;;;;;;15.10;13.60;;;17.80;99.90;;;;;;5095482;28;20020;-87
2021/05/28 01:14:14;;;;;;;15.23;13.63;;;17.80;99.90;;;;;;5078253;28;20024;-87
2021/05/28 01:16:40;;;;;;;15.85;14.32;;;17.90;99.90;;;;;;5077454;28;20035;-87
2021/05/28 01:19:06;;;;;;;15.60;14.07;;;17.90;99.90;;;;;;5078009;28;20042;-86
2021/05/28 01:21:32;;;;;;;14.45;12.95;;;17.80;99.90;;;;;;5078823;28;20055;-87
2021/05/28 01:23:58;;;;;;;13.75;11.68;;;17.90;99.90;;;;;;5078172;28;20043;-87
2021/05/28 01:26:23;;;;;;;13.20;11.90;;;17.90;99.90;;;;;;5098213;28;20431;-87
2021/05/28 01:28:49;;;;;;;13.32;12.02;;;17.90;99.90;;;;;;5084513;28;20098;-87
2021/05/28 01:31:15;;;;;;;13.57;12.27;;;17.90;99.90;;;;;;5091620;28;20028;-87
2021/05/28 01:33:43;;;;;;;13.88;12.48;;;17.90;99.90;;;;;;5091920;28;20020;-87
2021/05/28 01:36:09;;;;;;;13.73;12.43;;;18.00;99.90;;;;;;5119002;28;20039;-87
2021/05/28 01:38:35;;;;;;;13.77;12.48;;;18.00;99.90;;;;;;5119711;28;20035;-87
2021/05/28 01:41:01;;;;;;;12.60;11.35;;;18.00;99.90;;;;;;5102450;28;20046;-87
2021/05/28 01:43:27;;;;;;;13.88;12.48;;;18.00;99.90;;;;;;5081356;28;20016;-87
2021/05/28 01:45:53;;;;;;;14.35;12.95;;;18.00;99.90;;;;;;5097662;28;20124;-87
2021/05/28 01:48:19;;;;;;;13.55;12.35;;;18.00;99.90;;;;;;5085392;28;20048;-87
2021/05/28 01:50:46;;;;;;;13.80;12.38;;;18.00;99.90;;;;;;5080640;28;20051;-87
2021/05/28 01:53:18;;;;;;;14.15;12.80;;;18.00;99.90;;;;;;5080412;28;20027;-87
2021/05/28 01:55:44;;;;;;;12.93;11.02;;;18.10;99.90;;;;;;5097297;28;20031;-87
2021/05/28 01:58:16;;;;;;;12.93;11.73;;;18.10;99.90;;;;;;5080167;28;20036;-87
2021/05/28 02:00:42;;;;;;;12.38;11.18;;;18.10;99.90;;;;;;5097181;28;20020;-87
2021/05/28 02:03:08;;;;;;;13.25;10.98;;;18.10;99.90;;;;;;5096789;28;20115;-87
2021/05/28 02:05:35;;;;;;;13.18;11.88;;;18.10;99.90;;;;;;5083068;28;20089;-87
2021/05/28 02:08:03;;;;;;;13.07;11.68;;;18.10;99.90;;;;;;5097700;28;20032;-87
2021/05/28 02:10:30;;;;;;;11.68;10.57;;;18.10;99.90;;;;;;5081092;28;20035;-88
2021/05/28 02:13:03;;;;;;;12.25;11.15;;;18.20;99.90;;;;;;5081130;28;20481;-88
2021/05/28 02:15:28;;;;;;;11.68;10.57;;;18.10;99.90;;;;;;5086602;28;20075;-89
2021/05/28 02:17:54;;;;;;;12.35;11.15;;;18.10;99.90;;;;;;5080778;28;20539;-90
2021/05/28 02:20:21;;;;;;;12.77;11.57;;;18.10;99.90;;;;;;5080364;28;20430;-89
2021/05/28 02:22:47;;;;;;;12.48;11.27;;;18.00;99.90;;;;;;5080405;28;20508;-88
2021/05/28 02:25:13;;;;;;;13.30;11.88;;;18.00;99.90;;;;;;5097431;28;20046;-89
2021/05/28 02:27:39;;;;;;;12.65;11.35;;;18.00;99.90;;;;;;5098461;28;20077;-89
2021/05/28 02:30:06;;;;;;;13.63;12.23;;;17.90;99.90;;;;;;5098913;28;20111;-89
2021/05/28 02:32:32;;;;;;;15.27;13.68;;;17.90;99.90;;;;;;5098541;28;20081;-89
2021/05/28 02:34:58;;;;;;;14.30;13.00;;;17.90;99.90;;;;;;5080974;28;20107;-89
2021/05/28 02:37:24;;;;;;;14.15;12.82;;;17.90;99.90;;;;;;5082181;28;20116;-89
2021/05/28 02:39:50;;;;;;;15.65;14.15;;;17.90;99.90;;;;;;5104379;28;20020;-88
2021/05/28 02:42:15;;;;;;;13.65;12.25;;;17.80;99.90;;;;;;5096455;28;20036;-89
2021/05/28 02:44:41;;;;;;;14.18;12.77;;;17.90;99.90;;;;;;5097985;28;20021;-89
2021/05/28 02:47:08;;;;;;;21.80;19.50;;;17.90;99.90;;;;;;5114638;28;20067;-89
2021/05/28 02:49:35;;;;;;;26.55;23.75;;;17.90;99.90;;;;;;5109476;28;20020;-89
2021/05/28 02:52:01;;;;;;;28.30;24.60;;;17.90;99.90;;;;;;5096462;28;20040;-89
2021/05/28 02:54:28;;;;;;;22.45;20.10;;;17.90;99.90;;;;;;5096110;28;20370;-89
2021/05/28 02:56:53;;;;;;;22.30;19.77;;;17.90;99.90;;;;;;5080153;28;20032;-89
2021/05/28 02:59:19;;;;;;;18.90;16.90;;;18.00;99.90;;;;;;5080057;28;20047;-89
2021/05/28 03:01:45;;;;;;;20.27;18.17;;;18.00;99.90;;;;;;5079525;28;20038;-89
2021/05/28 03:04:14;;;;;;;16.90;15.30;;;18.00;99.90;;;;;;5080455;28;20115;-89
2021/05/28 03:06:40;;;;;;;15.35;13.85;;;18.10;99.90;;;;;;5080569;28;20039;-88
2021/05/28 03:09:06;;;;;;;15.27;13.73;;;18.10;99.90;;;;;;5096542;28;20016;-89
2021/05/28 03:11:32;;;;;;;18.88;15.63;;;18.20;99.90;;;;;;5080861;28;20036;-89
2021/05/28 03:13:58;;;;;;;16.67;15.07;;;18.30;99.90;;;;;;5101509;28;20016;-89
2021/05/28 03:16:24;;;;;;;17.67;15.98;;;18.40;99.90;;;;;;5092899;28;20040;-88
2021/05/28 03:18:52;;;;;;;16.70;15.10;;;18.60;99.90;;;;;;5106147;28;20016;-88
2021/05/28 03:21:25;;;;;;;15.52;14.02;;;18.70;99.90;;;;;;5087215;28;20035;-89
2021/05/28 03:23:53;;;;;;;17.20;15.50;;;18.80;99.90;;;;;;5080744;28;20024;-88
2021/05/28 03:26:23;;;;;;;16.60;14.95;;;18.90;99.90;;;;;;5096914;28;20063;-88
2021/05/28 03:28:49;;;;;;;16.50;14.80;;;19.00;99.90;;;;;;5079238;28;20065;-88
2021/05/28 03:31:15;;;;;;;17.55;15.75;;;19.00;99.90;;;;;;5079476;28;20028;-89
2021/05/28 03:33:42;;;;;;;15.23;13.73;;;19.10;99.90;;;;;;5095876;28;20024;-89
2021/05/28 03:36:12;;;;;;;15.65;14.05;;;19.20;99.90;;;;;;5095978;28;20182;-90
2021/05/28 03:38:38;;;;;;;17.05;15.25;;;19.30;99.90;;;;;;5079287;28;20458;-89
2021/05/28 03:41:04;;;;;;;19.55;17.30;;;19.30;99.90;;;;;;5078867;28;20028;-89
2021/05/28 03:43:29;;;;;;;16.63;14.05;;;19.40;99.90;;;;;;5095881;28;20080;-86
2021/05/28 03:45:55;;;;;;;15.05;13.65;;;19.50;99.90;;;;;;5096623;28;20537;-89
2021/05/28 03:48:21;;;;;;;16.70;15.13;;;19.60;99.90;;;;;;5078557;28;20032;-87
2021/05/28 03:50:47;;;;;;;17.20;15.55;;;19.80;99.90;;;;;;5078163;28;20044;-88
2021/05/28 03:53:13;;;;;;;15.93;14.40;;;20.00;99.90;;;;;;5081715;28;20028;-87
2021/05/28 03:55:39;;;;;;;16.42;14.68;;;20.20;99.90;;;;;;5080418;28;20031;-86
2021/05/28 03:58:05;;;;;;;16.08;13.73;;;20.30;99.90;;;;;;5094705;28;20417;-86
2021/05/28 04:00:31;;;;;;;14.02;12.63;;;20.50;99.90;;;;;;5078478;28;20024;-86
2021/05/28 04:02:57;;;;;;;15.07;13.68;;;20.60;99.90;;;;;;5083012;28;20040;-86
2021/05/28 04:05:23;;;;;;;13.07;11.77;;;20.90;99.90;;;;;;5083324;28;20584;-86
2021/05/28 04:07:48;;;;;;;14.02;12.63;;;21.00;99.90;;;;;;5087778;28;20385;-86
2021/05/28 04:10:15;;;;;;;13.45;12.15;;;21.20;99.90;;;;;;5077891;28;20100;-86
2021/05/28 04:12:41;;;;;;;12.48;11.27;;;21.30;99.90;;;;;;5094829;28;20030;-86
2021/05/28 04:15:08;;;;;;;12.95;11.77;;;21.30;99.90;;;;;;5079299;28;20025;-87
2021/05/28 04:17:34;;;;;;;14.43;12.93;;;21.50;99.90;;;;;;5095527;28;20060;-87
2021/05/28 04:20:00;;;;;;;13.32;12.02;;;21.60;99.90;;;;;;5077859;28;20040;-86
2021/05/28 04:22:26;;;;;;;11.32;10.32;;;21.60;99.90;;;;;;5076943;28;20024;-87
2021/05/28 04:24:52;;;;;;;12.23;10.93;;;21.70;99.90;;;;;;5077937;28;20024;-86
2021/05/28 04:27:18;;;;;;;11.60;9.45;;;21.80;99.90;;;;;;5094679;28;20036;-87
2021/05/28 04:29:43;;;;;;;10.52;9.48;;;21.90;99.90;;;;;;5095351;28;20035;-86
2021/05/28 04:32:09;;;;;;;11.13;10.00;;;21.90;99.90;;;;;;5096721;28;20020;-87
2021/05/28 04:34:44;;;;;;;11.00;8.57;;;21.90;99.90;;;;;;5083094;28;20032;-87
2021/05/28 04:40:53;;;;;;;10.48;7.85;;;22.00;99.90;;;;;;5098607;28;20046;-86
2021/05/28 04:43:27;;;;;;;9.33;8.33;;;22.10;99.90;;;;;;5077386;28;20036;-87
2021/05/28 04:46:16;;;;;;;8.65;6.85;;;22.20;99.90;;;;;;5075189;28;20044;-87
2021/05/28 04:49:18;;;;;;;9.18;8.27;;;22.30;99.90;;;;;;5033048;28;20064;-87
2021/05/28 04:51:51;;;;;;;6.97;6.38;;;22.40;99.90;;;;;;5003260;28;20038;-87
2021/05/28 04:54:30;;;;;;;;;;;;;;;;;;;;;
2021/05/28 04:57:04;;;;;;;6.30;5.50;;;22.60;99.90;;;;;;5033105;28;20040;-87
2021/05/28 04:59:30;;;;;;;7.05;6.32;;;22.70;99.90;;;;;;5038850;28;20019;-87
2021/05/28 05:02:26;;;;;;;6.15;5.53;;;22.60;99.90;;;;;;5055603;28;20053;-87
2021/05/28 05:08:13;;;;;;;7.35;4.90;;;23.00;99.90;;;;;;5017411;28;20061;-88
2021/05/28 05:10:50;;;;;;;8.23;5.28;;;23.40;99.90;;;;;;5030138;28;20053;-87
2021/05/28 05:13:59;;;;;;;7.25;4.90;;;23.70;99.90;;;;;;5032523;28;20490;-87
2021/05/28 05:16:45;;;;;;;6.18;5.63;;;23.80;99.90;;;;;;5010733;28;20056;-87
2021/05/28 05:20:10;;;;;;;5.30;4.80;;;24.00;99.90;;;;;;5044045;28;20028;-87
2021/05/28 05:26:09;;;;;;;5.18;4.68;;;24.70;99.90;;;;;;5093142;28;20517;-87
2021/05/28 05:28:52;;;;;;;5.18;4.03;;;25.10;99.90;;;;;;5093706;28;20024;-87
2021/05/28 05:31:29;;;;;;;5.93;4.10;;;25.50;99.90;;;;;;5094037;28;20031;-88
2021/05/28 05:38:07;;;;;;;;;;;;;;;;;;;;;
2021/05/28 05:41:20;;;;;;;4.97;3.50;;;26.30;99.90;;;;;;5112531;28;20042;-88
2021/05/28 05:45:01;;;;;;;3.80;3.50;;;26.80;99.90;;;;;;5029983;28;20430;-88
2021/05/28 05:48:01;;;;;;;3.22;2.92;;;27.50;99.40;;;;;;5036297;28;20048;-88
2021/05/28 05:50:30;;;;;;;4.88;3.25;;;28.10;98.90;;;;;;5096235;28;20043;-88
2021/05/28 05:53:15;;;;;;;4.25;2.67;;;28.80;96.70;;;;;;5096338;28;20492;-88
2021/05/28 05:56:01;;;;;;;6.70;2.67;;;29.20;95.20;;;;;;5094918;28;20038;-88
2021/05/28 05:59:21;;;;;;;3.13;2.75;;;29.70;89.20;;;;;;5102782;28;20083;-88
2021/05/28 06:01:47;;;;;;;5.00;3.13;;;30.20;70.10;;;;;;5039562;28;20073;-89
2021/05/28 06:04:43;;;;;;;4.57;2.80;;;30.50;91.20;;;;;;5045326;28;20041;-89
2021/05/28 06:07:11;;;;;;;3.50;2.50;;;31.00;75.30;;;;;;5044062;28;20057;-90
2021/05/28 06:09:39;;;;;;;4.80;2.40;;;31.20;83.60;;;;;;5055343;28;20079;-88
2021/05/28 06:12:41;;;;;;;2.60;2.40;;;31.60;79.00;;;;;;5050255;28;20025;-88
2021/05/28 06:15:07;;;;;;;3.38;2.22;;;31.80;62.10;;;;;;5035767;28;20115;-90
2021/05/28 06:21:56;;;;;;;3.67;2.13;;;32.40;65.10;;;;;;4974772;28;20467;-89
2021/05/28 06:24:24;;;;;;;3.53;1.90;;;32.90;62.60;;;;;;4930600;28;20111;-89
2021/05/28 06:26:50;;;;;;;2.17;1.98;;;33.20;66.60;;;;;;5084980;28;20040;-90
2021/05/28 06:29:17;;;;;;;3.20;2.00;;;33.20;65.30;;;;;;5118464;28;20020;-90
2021/05/28 06:31:58;;;;;;;2.10;1.60;;;33.20;63.90;;;;;;5116888;27;20027;-89
2021/05/28 06:34:26;;;;;;;2.80;1.70;;;33.10;57.00;;;;;;5122615;27;20011;-89
2021/05/28 06:37:16;;;;;;;4.28;1.95;;;32.90;62.00;;;;;;5114203;28;20027;-88
2021/05/28 06:40:06;;;;;;;1.60;1.50;;;32.50;60.70;;;;;;5098036;28;20023;-89
2021/05/28 06:43:07;;;;;;;4.15;2.20;;;32.10;60.00;;;;;;5097992;28;20074;-89
2021/05/28 06:45:35;;;;;;;3.10;1.92;;;31.80;58.50;;;;;;5015516;28;20140;-89
2021/05/28 06:48:01;;;;;;;1.92;1.77;;;31.80;62.20;;;;;;5030220;28;20040;-90
2021/05/28 06:50:31;;;;;;;2.13;1.92;;;32.00;62.10;;;;;;5097946;28;20030;-89
2021/05/28 06:52:58;;;;;;;2.38;2.10;;;32.40;61.50;;;;;;5098219;28;20069;-90
2021/05/28 06:55:23;;;;;;;6.28;1.95;;;32.80;60.90;;;;;;5099468;28;20015;-89
2021/05/28 06:57:49;;;;;;;3.88;1.90;;;33.30;60.00;;;;;;5101625;28;20387;-88
2021/05/28 07:00:15;;;;;;;2.38;1.70;;;33.60;58.40;;;;;;5101263;28;20028;-89
2021/05/28 07:02:41;;;;;;;1.75;1.55;;;33.90;58.70;;;;;;5099754;28;20024;-89
2021/05/28 07:05:07;;;;;;;2.75;2.03;;;34.00;57.30;;;;;;5104016;28;20048;-89
2021/05/28 07:07:33;;;;;;;9.55;2.47;;;34.30;56.80;;;;;;5103643;28;20094;-90
2021/05/28 07:09:59;;;;;;;2.55;1.70;;;34.60;56.60;;;;;;5108686;28;20096;-89
2021/05/28 07:12:26;;;;;;;2.03;1.77;;;34.80;56.10;;;;;;5111519;27;20011;-90
2021/05/28 07:14:52;;;;;;;1.80;1.65;;;34.80;55.50;;;;;;5111773;28;20019;-90
2021/05/28 07:17:18;;;;;;;4.25;1.98;;;34.70;55.30;;;;;;5108671;28;20023;-92
2021/05/28 07:19:47;;;;;;;1.50;1.40;;;34.80;54.70;;;;;;5098839;28;20429;-89
2021/05/28 07:22:19;;;;;;;2.20;1.58;;;35.20;54.20;;;;;;5097201;28;20039;-90
2021/05/28 07:24:53;;;;;;;1.60;1.38;;;35.40;52.30;;;;;;5097958;28;20418;-91
2021/05/28 07:27:28;;;;;;;;;;;35.60;51.00;;;;;;5096934;28;20085;-89
2021/05/28 07:30:01;;;;;;;1.65;1.55;;;35.60;52.80;;;;;;5096692;28;20002;-92
2021/05/28 07:32:30;;;;;;;1.92;1.70;;;35.60;51.00;;;;;;5098255;28;20038;-90
2021/05/28 07:35:00;;;;;;;1.70;1.60;;;35.90;51.80;;;;;;5097652;28;20024;-90
2021/05/28 07:37:42;;;;;;;1.70;1.40;;;36.20;50.80;;;;;;5100080;28;20036;-90
2021/05/28 07:40:21;;;;;;;1.67;1.27;;;36.50;50.20;;;;;;5120588;28;20031;-89
2021/05/28 07:43:05;;;;;;;1.75;1.50;;;36.90;48.00;;;;;;5110950;28;20034;-91
2021/05/28 07:45:45;;;;;;;4.50;1.50;;;37.20;47.30;;;;;;5116599;28;20035;-90
2021/05/28 07:48:21;;;;;;;2.95;1.50;;;37.20;47.40;;;;;;5116553;28;20044;-91
2021/05/28 07:50:48;;;;;;;1.80;1.70;;;37.30;47.80;;;;;;5103857;28;20027;-90
2021/05/28 07:53:24;;;;;;;2.90;1.48;;;37.60;47.50;;;;;;5097067;28;20076;-91
2021/05/28 07:55:50;;;;;;;2.35;1.50;;;38.00;46.70;;;;;;5094982;28;20060;-89
2021/05/28 07:58:16;;;;;;;1.20;1.10;;;38.30;46.80;;;;;;5094777;28;20028;-91
2021/05/28 08:00:45;;;;;;;1.23;1.13;;;38.60;45.50;;;;;;5095300;28;20043;-91
2021/05/28 08:03:11;;;;;;;1.23;1.20;;;38.80;44.50;;;;;;5095554;28;20112;-90
2021/05/28 08:05:37;;;;;;;2.20;1.40;;;39.30;44.60;;;;;;5097056;28;20070;-90
2021/05/28 08:08:09;;;;;;;1.67;1.30;;;39.40;44.30;;;;;;5097969;28;20027;-91
2021/05/28 08:10:36;;;;;;;2.35;1.33;;;39.60;44.10;;;;;;5081323;28;20028;-91
2021/05/28 08:13:05;;;;;;;1.33;1.23;;;39.60;44.00;;;;;;5098847;28;20028;-91
2021/05/28 08:15:31;;;;;;;1.65;1.38;;;39.70;43.50;;;;;;5108398;28;20065;-91
2021/05/28 08:17:58;;;;;;;1.98;1.40;;;39.70;43.20;;;;;;5103517;28;20440;-91
2021/05/28 08:20:24;;;;;;;1.52;1.30;;;39.70;43.00;;;;;;5100046;28;20472;-90
2021/05/28 08:22:51;;;;;;;1.63;1.20;;;39.60;42.40;;;;;;5116627;28;20069;-91
2021/05/28 08:25:17;;;;;;;4.47;1.40;;;39.60;42.30;;;;;;5098756;28;20053;-91
2021/05/28 08:27:43;;;;;;;1.23;1.10;;;39.60;42.10;;;;;;5117220;28;20426;-89
2021/05/28 08:30:09;;;;;;;1.05;1.05;;;39.80;41.70;;;;;;5099876;28;20031;-91
2021/05/28 08:32:35;;;;;;;1.20;1.10;;;39.90;41.60;;;;;;5117361;28;20518;-90
2021/05/28 08:35:33;;;;;;;1.90;1.40;;;40.00;41.40;;;;;;5098534;28;20024;-90
2021/05/28 08:38:19;;;;;;;2.90;1.23;;;40.20;39.20;;;;;;5084714;28;20084;-90
2021/05/28 08:41:11;;;;;;;;;;;;;;;;;;;;;
2021/05/28 08:43:41;;;;;;;;;;;40.90;39.40;;;;;;5114243;28;20134;-91
2021/05/28 08:46:07;;;;;;;2.65;1.20;;;40.50;38.20;;;;;;5104265;28;19927;-91
2021/05/28 08:48:33;;;;;;;2.25;1.10;;;40.50;39.90;;;;;;5106317;28;20027;-91
2021/05/28 08:50:58;;;;;;;3.03;1.30;;;40.40;39.20;;;;;;5114724;28;20023;-90
2021/05/28 08:53:25;;;;;;;2.72;1.35;;;40.20;39.20;;;;;;5114811;28;20098;-90
2021/05/28 08:55:51;;;;;;;1.73;1.20;;;40.20;39.90;;;;;;5115897;28;20035;-90
2021/05/28 08:58:21;;;;;;;1.20;1.20;;;40.50;39.70;;;;;;5114664;28;20020;-89
2021/05/28 09:00:47;;;;;;;1.38;1.23;;;40.60;38.70;;;;;;5100960;28;20047;-90
2021/05/28 09:03:17;;;;;;;4.18;1.48;;;40.80;39.00;;;;;;5097753;28;20035;-90
2021/05/28 09:05:43;;;;;;;1.45;1.20;;;41.10;39.00;;;;;;5098328;28;20051;-91
2021/05/28 09:08:10;;;;;;;1.35;1.23;;;41.40;38.70;;;;;;5099205;28;20023;-90
2021/05/28 09:10:41;;;;;;;3.00;1.27;;;41.10;38.50;;;;;;5103698;28;20027;-90
2021/05/28 09:13:07;;;;;;;1.77;1.20;;;40.90;38.60;;;;;;5116397;28;20030;-91
2021/05/28 09:15:33;;;;;;;2.05;1.35;;;41.00;39.10;;;;;;5110185;28;20071;-91
2021/05/28 09:17:59;;;;;;;1.58;1.30;;;41.10;37.90;;;;;;5119505;28;20057;-91
2021/05/28 09:20:24;;;;;;;1.40;1.30;;;40.80;37.90;;;;;;5098907;28;20027;-90
2021/05/28 09:23:09;;;;;;;1.30;1.20;;;40.50;37.30;;;;;;5098453;28;20476;-89
2021/05/28 09:25:56;;;;;;;1.40;1.25;;;40.60;37.30;;;;;;5099595;28;20132;-91
2021/05/28 09:28:24;;;;;;;1.58;1.35;;;40.80;37.80;;;;;;5097058;28;20102;-91
2021/05/28 09:30:59;;;;;;;2.38;1.50;;;40.90;38.70;;;;;;5101894;28;20027;-89
2021/05/28 09:33:26;;;;;;;2.95;1.35;;;40.90;37.30;;;;;;5098840;28;20027;-89
2021/05/28 09:35:53;;;;;;;1.77;1.67;;;41.00;37.70;;;;;;5099968;28;20504;-91
2021/05/28 09:38:25;;;;;;;3.33;1.48;;;40.80;36.50;;;;;;5099329;28;20108;-89
2021/05/28 09:40:51;;;;;;;1.42;1.33;;;40.70;37.50;;;;;;5098085;28;20032;-90
2021/05/28 09:43:25;;;;;;;1.45;1.35;;;40.90;38.50;;;;;;5097150;28;20055;-90
2021/05/28 09:45:51;;;;;;;1.48;1.35;;;41.50;38.50;;;;;;5097216;28;20488;-88
2021/05/28 09:48:31;;;;;;;1.20;1.10;;;41.80;38.30;;;;;;5097752;28;20020;-91
2021/05/28 09:51:06;;;;;;;1.30;1.20;;;42.10;35.80;;;;;;5103798;28;20070;-91
2021/05/28 09:53:41;;;;;;;1.80;1.52;;;42.10;36.90;;;;;;5105148;28;20027;-90
2021/05/28 09:56:31;;;;;;;1.27;1.17;;;42.10;36.10;;;;;;5118315;28;20023;-88
2021/05/28 09:59:02;;;;;;;3.30;1.50;;;42.10;37.00;;;;;;5116104;28;20035;-89
2021/05/28 10:01:32;;;;;;;1.30;1.20;;;42.50;37.40;;;;;;5103233;28;20048;-90
2021/05/28 10:04:09;;;;;;;1.60;1.50;;;42.60;36.30;;;;;;5101155;28;20050;-89
2021/05/28 10:06:37;;;;;;;1.67;1.42;;;42.50;35.80;;;;;;5100574;28;20060;-90
2021/05/28 10:09:11;;;;;;;2.47;1.50;;;42.40;36.20;;;;;;5101557;28;20028;-91
2021/05/28 10:11:39;;;;;;;1.70;1.35;;;42.50;35.70;;;;;;5101403;28;20109;-88
2021/05/28 10:14:14;;;;;;;1.33;1.23;;;42.30;35.80;;;;;;5100679;28;20475;-90
2021/05/28 10:16:40;;;;;;;3.75;1.30;;;42.30;36.10;;;;;;5099301;28;20027;-89
2021/05/28 10:19:06;;;;;;;1.90;1.30;;;42.50;36.70;;;;;;5099606;28;20036;-89
2021/05/28 10:21:32;;;;;;;1.90;1.50;;;43.00;36.50;;;;;;5096711;28;20403;-89
2021/05/28 10:23:59;;;;;;;3.60;1.50;;;43.70;36.00;;;;;;5096614;28;20028;-91
2021/05/28 10:26:28;;;;;;;1.40;1.30;;;44.10;35.00;;;;;;5098667;28;20063;-91
2021/05/28 10:28:55;;;;;;;3.15;1.40;;;43.90;33.80;;;;;;5102116;28;20024;-91
2021/05/28 10:31:52;;;;;;;2.55;1.60;;;43.80;34.10;;;;;;5100120;28;20038;-91
2021/05/28 10:34:20;;;;;;;1.88;1.50;;;43.40;33.20;;;;;;5117606;28;20024;-90
2021/05/28 10:36:47;;;;;;;1.65;1.48;;;43.40;34.20;;;;;;5098192;28;20057;-88
2021/05/28 10:39:16;;;;;;;1.98;1.17;;;44.00;34.30;;;;;;5097971;28;20110;-88
2021/05/28 10:41:56;;;;;;;2.83;1.40;;;44.50;34.30;;;;;;5097640;28;20058;-89
2021/05/28 10:44:37;;;;;;;1.67;1.10;;;45.00;34.10;;;;;;5115587;28;20024;-90
2021/05/28 10:47:12;;;;;;;1.40;1.30;;;45.50;33.50;;;;;;5098253;28;20040;-89
2021/05/28 10:49:47;;;;;;;1.77;1.40;;;45.70;33.60;;;;;;5098595;28;20020;-89
2021/05/28 10:52:14;;;;;;;3.00;1.50;;;45.60;32.40;;;;;;5100386;28;20026;-88
2021/05/28 10:54:51;;;;;;;1.40;1.25;;;45.20;32.70;;;;;;5099175;28;20023;-90
2021/05/28 10:57:21;;;;;;;1.50;1.40;;;44.60;32.80;;;;;;5099456;28;20024;-91
2021/05/28 10:59:49;;;;;;;1.58;1.48;;;44.00;33.00;;;;;;5098612;28;20023;-90
2021/05/28 11:02:35;;;;;;;2.85;1.27;;;43.10;32.50;;;;;;5097780;28;20015;-91
2021/05/28 11:05:00;;;;;;;1.50;1.30;;;41.90;32.70;;;;;;5097275;28;20251;-89
2021/05/28 11:07:34;;;;;;;3.05;1.48;;;40.50;33.60;;;;;;5096342;28;20125;-90
2021/05/28 11:10:15;;;;;;;2.53;1.50;;;39.40;34.40;;;;;;5097038;28;20055;-88
2021/05/28 11:12:41;;;;;;;1.50;1.40;;;38.30;34.40;;;;;;5098354;28;20028;-91
2021/05/28 11:15:13;;;;;;;3.33;1.58;;;37.00;35.40;;;;;;5118290;28;20024;-88
2021/05/28 11:18:02;;;;;;;1.83;1.63;;;36.20;35.70;;;;;;5098384;28;20044;-89
2021/05/28 11:20:39;;;;;;;1.67;1.58;;;35.30;36.60;;;;;;5081779;28;20481;-88
2021/05/28 11:23:16;;;;;;;2.45;1.80;;;34.50;37.40;;;;;;5100248;28;20503;-89
2021/05/28 11:25:51;;;;;;;3.97;1.60;;;33.90;37.50;;;;;;5100958;28;20076;-89
2021/05/28 11:28:18;;;;;;;3.83;1.40;;;33.20;38.00;;;;;;5104202;28;20091;-88
2021/05/28 11:30:48;;;;;;;4.80;1.70;;;32.70;38.60;;;;;;5099084;28;20118;-90
2021/05/28 11:34:10;;;;;;;1.70;1.50;;;32.20;39.00;;;;;;5097688;28;20141;-90
2021/05/28 11:36:41;;;;;;;1.92;1.83;;;31.60;39.60;;;;;;5032112;28;20041;-88
2021/05/28 11:39:17;;;;;;;1.77;1.63;;;30.90;40.50;;;;;;5097801;28;20055;-88
2021/05/28 11:41:49;;;;;;;2.20;2.00;;;30.40;41.30;;;;;;5104328;28;20027;-90
2021/05/28 11:44:18;;;;;;;7.00;2.80;;;29.90;42.40;;;;;;5106713;28;20072;-89
2021/05/28 11:46:46;;;;;;;2.75;2.50;;;29.40;43.10;;;;;;5114262;28;20059;-90
2021/05/28 11:49:15;;;;;;;6.00;2.63;;;29.00;43.70;;;;;;5134647;28;20016;-89
2021/05/28 11:51:41;;;;;;;6.43;3.47;;;28.80;44.20;;;;;;5117655;28;20031;-90
2021/05/28 11:54:24;;;;;;;4.35;3.35;;;28.60;45.10;;;;;;5104021;28;20024;-89
2021/05/28 11:57:17;;;;;;;6.32;3.13;;;28.00;49.60;;;;;;5098908;28;20085;-90
2021/05/28 11:59:49;;;;;;;5.32;2.92;;;27.30;53.30;;;;;;5090375;28;20131;-87
2021/05/28 12:02:32;;;;;;;5.00;3.40;;;26.80;55.00;;;;;;5097395;28;20064;-88
2021/05/28 12:04:57;;;;;;;4.45;2.90;;;26.20;56.80;;;;;;5098424;28;20046;-89
2021/05/28 12:07:28;;;;;;;4.05;3.10;;;25.90;58.20;;;;;;5097799;28;20031;-86
2021/05/28 12:10:05;;;;;;;3.80;3.40;;;25.60;60.50;;;;;;5098966;28;20089;-87
2021/05/28 12:13:04;;;;;;;3.40;2.75;;;25.30;62.50;;;;;;5098594;28;20389;-89
2021/05/28 12:15:39;;;;;;;3.65;2.80;;;24.90;63.00;;;;;;5016592;28;20117;-89
2021/05/28 12:18:34;;;;;;;3.45;2.53;;;24.70;64.40;;;;;;5031309;28;20024;-89
2021/05/28 12:21:13;;;;;;;3.60;3.13;;;24.60;64.60;;;;;;5096755;28;20050;-90
2021/05/28 12:23:41;;;;;;;3.63;2.97;;;24.50;67.70;;;;;;5094825;28;20110;-89
2021/05/28 12:26:11;;;;;;;5.47;3.83;;;24.40;68.30;;;;;;5095847;28;20050;-89
2021/05/28 12:28:39;;;;;;;4.05;3.20;;;24.50;70.50;;;;;;5093790;28;20027;-89
2021/05/28 12:31:11;;;;;;;2.90;2.70;;;24.60;71.80;;;;;;5095480;28;20024;-89
2021/05/28 12:33:39;;;;;;;3.55;2.97;;;24.90;71.00;;;;;;5097571;28;20020;-89
2021/05/28 12:36:07;;;;;;;5.95;3.25;;;25.40;71.90;;;;;;5099768;28;20042;-89
2021/05/28 12:38:39;;;;;;;6.57;3.35;;;26.70;72.30;;;;;;5101846;28;20484;-89
2021/05/28 12:41:07;;;;;;;6.93;2.92;;;28.50;69.40;;;;;;5099613;28;20027;-89
2021/05/28 12:43:34;;;;;;;5.00;3.58;;;30.20;66.30;;;;;;5100635;28;20031;-89
2021/05/28 12:46:00;;;;;;;4.50;2.75;;;31.80;64.00;;;;;;5094746;28;20076;-89
2021/05/28 12:48:45;;;;;;;3.35;2.80;;;33.30;61.60;;;;;;5094229;28;20102;-89
2021/05/28 12:51:13;;;;;;;4.55;3.60;;;35.00;52.50;;;;;;5093475;28;20027;-89
2021/05/28 12:53:42;;;;;;;2.72;2.53;;;36.20;55.00;;;;;;5094586;28;20027;-91
2021/05/28 12:56:18;;;;;;;3.17;2.70;;;37.00;52.30;;;;;;5103611;28;20043;-88
2021/05/28 12:58:43;;;;;;;2.65;2.05;;;37.70;50.10;;;;;;5114301;28;20027;-90
2021/05/28 13:01:16;;;;;;;4.97;2.90;;;38.40;48.50;;;;;;5094369;28;20036;-92
2021/05/28 13:03:57;;;;;;;7.82;2.60;;;38.90;47.00;;;;;;5095551;28;20016;-92
2021/05/28 13:06:33;;;;;;;4.25;2.30;;;39.10;45.90;;;;;;5114595;28;20384;-89
2021/05/28 13:09:12;;;;;;;4.47;2.88;;;39.50;45.40;;;;;;5098018;28;20110;-89
2021/05/28 13:12:00;;;;;;;4.32;2.80;;;40.00;44.00;;;;;;5115972;28;20485;-90
2021/05/28 13:14:43;;;;;;;3.85;2.42;;;40.30;42.90;;;;;;5097261;28;20024;-90
2021/05/28 13:17:24;;;;;;;3.28;2.42;;;40.70;43.50;;;;;;5098286;28;20494;-90
2021/05/28 13:19:57;;;;;;;2.70;2.40;;;40.80;41.30;;;;;;5095493;28;20034;-91
2021/05/28 13:22:29;;;;;;;;;;;40.80;41.90;;;;;;5097154;28;20031;-90
2021/05/28 13:24:54;;;;;;;4.90;2.70;;;41.20;39.00;;;;;;5097402;28;19910;-90